HRG weather

Hurghada International Airport
Hurghada, Red Sea Governorate, Egypt

Public forecast

Using degrees Celsius for public forecast. Weather courtesy of forecast.io.

METAR (pilot weather report)

Retrieved 2019/04/25 11:00 UTC (53 minutes ago):

HEGN 251100Z 01011KT 6000 NSC 30/09 Q1014 NOSIG

TAF (pilot weather forecast)

Retrieved 2019/04/25 06:45 UTC (5 hours ago):

TAF HEGN 250500Z 2506/2612 32010G20KT CAVOK